Reger, Missouri
Current Conditions -  °F | °C
As of 7:55 AM on Friday 31 Oct 2014 (Local Time) from KIRK Reporting Station
Clear Clear  
Wind Chill: 21°   Ceiling: Unl
Heat Index: 31°   Visibility: 10mi
Dew Point: 16°   Wind: 14mph
Humidity: 54%   Direction: 350°N
Pressure: 30.37"   Gusts: 24mph
Location:  40.1663°N, 93.1629°W
Report Text: KIRK 311255Z AUTO 35012G21KT 10SM CLR M01/M09 A3037 RMK AO2 PK WND 35031/1202 SLP294 T10061089
Loading
Personal Weather Stations






























Interactive Weather Map
Tropical Storm Tracking
New forecast layout! Learn more

10-Day Weather Forecast

Advertisements
Track Severe Weather on mobile